createdAt,value
2022-12-15T00:00:35.145Z,959.12
2022-12-15T00:01:35.041Z,959.14
2022-12-15T00:02:35.117Z,959.24
2022-12-15T00:03:35.838Z,959.25
2022-12-15T00:04:35.012Z,959.25
2022-12-15T00:05:34.984Z,959.28
2022-12-15T00:06:35.049Z,959.35
2022-12-15T00:07:35.025Z,959.31
2022-12-15T00:08:34.962Z,959.34
2022-12-15T00:09:34.960Z,959.35
2022-12-15T00:10:34.957Z,959.36
2022-12-15T00:11:34.924Z,959.37
2022-12-15T00:12:34.918Z,959.38
2022-12-15T00:13:35.085Z,959.44
2022-12-15T00:14:34.902Z,959.39
2022-12-15T00:15:35.021Z,959.40
2022-12-15T00:16:34.924Z,959.40
2022-12-15T00:17:34.881Z,959.39
2022-12-15T00:18:34.855Z,959.42
2022-12-15T00:19:34.844Z,959.44
2022-12-15T00:20:34.831Z,959.50
2022-12-15T00:21:34.833Z,959.44
2022-12-15T00:22:34.816Z,959.50
2022-12-15T00:23:34.816Z,959.49
2022-12-15T00:24:34.803Z,959.44
2022-12-15T00:25:34.783Z,959.42
2022-12-15T00:26:34.772Z,959.40
2022-12-15T00:27:34.748Z,959.38
2022-12-15T00:28:34.777Z,959.38
2022-12-15T00:29:34.742Z,959.45
2022-12-15T00:30:34.726Z,959.36
2022-12-15T00:31:34.789Z,959.39
2022-12-15T00:32:34.728Z,959.32
2022-12-15T00:33:34.890Z,959.36
2022-12-15T00:34:34.684Z,959.39
2022-12-15T00:35:34.686Z,959.45
2022-12-15T00:36:34.690Z,959.47
2022-12-15T00:37:34.686Z,959.50
2022-12-15T00:38:34.653Z,959.46
2022-12-15T00:39:34.654Z,959.45
2022-12-15T00:40:34.634Z,959.47
2022-12-15T00:41:34.611Z,959.50
2022-12-15T00:42:34.614Z,959.49
2022-12-15T00:43:35.078Z,959.48
2022-12-15T00:44:34.632Z,959.47
2022-12-15T00:45:34.565Z,959.52
2022-12-15T00:46:34.673Z,959.51
2022-12-15T00:47:34.555Z,959.54
2022-12-15T00:48:34.546Z,959.58
2022-12-15T00:49:34.616Z,959.60
2022-12-15T00:50:34.520Z,959.57
2022-12-15T00:51:34.515Z,959.50
2022-12-15T00:52:34.494Z,959.51
2022-12-15T00:53:34.495Z,959.49
2022-12-15T00:54:34.475Z,959.45
2022-12-15T00:55:34.504Z,959.43
2022-12-15T00:56:34.467Z,959.48
2022-12-15T00:57:34.452Z,959.52
2022-12-15T00:58:34.441Z,959.50
2022-12-15T00:59:35.460Z,959.55
2022-12-15T01:00:34.413Z,959.51
2022-12-15T01:01:34.509Z,959.49
2022-12-15T01:02:34.518Z,959.50
2022-12-15T01:03:34.848Z,959.50
2022-12-15T01:04:34.394Z,959.50
2022-12-15T01:05:34.381Z,959.54
2022-12-15T01:06:34.380Z,959.52
2022-12-15T01:07:34.356Z,959.55
2022-12-15T01:08:34.331Z,959.66
2022-12-15T01:09:34.319Z,959.62
2022-12-15T01:10:34.324Z,959.65
2022-12-15T01:11:34.297Z,959.60
2022-12-15T01:12:34.287Z,959.61
2022-12-15T01:13:34.487Z,959.53
2022-12-15T01:14:34.267Z,959.52
2022-12-15T01:15:34.248Z,959.51
2022-12-15T01:16:34.313Z,959.56
2022-12-15T01:17:34.242Z,959.54
2022-12-15T01:18:34.234Z,959.52
2022-12-15T01:19:34.249Z,959.53
2022-12-15T01:20:34.223Z,959.63
2022-12-15T01:21:34.194Z,959.63
2022-12-15T01:22:35.073Z,959.63
2022-12-15T01:23:34.580Z,959.60
2022-12-15T01:24:34.191Z,959.57
2022-12-15T01:25:34.156Z,959.53
2022-12-15T01:26:34.176Z,959.53
2022-12-15T01:27:34.137Z,959.49
2022-12-15T01:28:34.131Z,959.56
2022-12-15T01:29:34.139Z,959.53
2022-12-15T01:30:34.102Z,959.52
2022-12-15T01:31:34.177Z,959.60
2022-12-15T01:32:34.087Z,959.58
2022-12-15T01:33:34.328Z,959.60
2022-12-15T01:34:34.073Z,959.60
2022-12-15T01:35:34.060Z,959.66
2022-12-15T01:36:34.052Z,959.60
2022-12-15T01:37:34.067Z,959.66
2022-12-15T01:38:34.023Z,959.60
2022-12-15T01:39:34.021Z,959.59
2022-12-15T01:40:34.008Z,959.55
2022-12-15T01:41:33.995Z,959.56
2022-12-15T01:42:34.021Z,959.56
2022-12-15T01:43:34.572Z,959.54
2022-12-15T01:44:33.965Z,959.60
2022-12-15T01:45:33.945Z,959.56
2022-12-15T01:46:34.001Z,959.56
2022-12-15T01:47:33.930Z,959.55
2022-12-15T01:48:33.956Z,959.50
2022-12-15T01:49:33.911Z,959.55
2022-12-15T01:50:33.911Z,959.55
2022-12-15T01:51:33.900Z,959.54
2022-12-15T01:52:33.889Z,959.55
2022-12-15T01:53:34.260Z,959.58
2022-12-15T01:54:33.888Z,959.60
2022-12-15T01:55:33.861Z,959.62
2022-12-15T01:56:37.378Z,959.57
2022-12-15T01:57:33.842Z,959.65
2022-12-15T01:58:33.844Z,959.65
2022-12-15T01:59:33.843Z,959.70
2022-12-15T02:00:33.881Z,959.65
2022-12-15T02:01:33.879Z,959.65
2022-12-15T02:02:39.755Z,959.68
2022-12-15T02:03:34.076Z,959.65
2022-12-15T02:04:33.783Z,959.60
2022-12-15T02:05:33.756Z,959.64
2022-12-15T02:06:33.744Z,959.68
2022-12-15T02:07:33.731Z,959.68
2022-12-15T02:08:33.725Z,959.70
2022-12-15T02:09:33.738Z,959.65
2022-12-15T02:10:33.697Z,959.68
2022-12-15T02:11:33.696Z,959.67
2022-12-15T02:12:33.694Z,959.66
2022-12-15T02:13:34.102Z,959.79
2022-12-15T02:14:33.703Z,959.66
2022-12-15T02:15:33.665Z,959.71
2022-12-15T02:16:33.702Z,959.76
2022-12-15T02:17:33.636Z,959.73
2022-12-15T02:18:33.641Z,959.70
2022-12-15T02:19:33.620Z,959.73
2022-12-15T02:20:33.676Z,959.73
2022-12-15T02:21:33.596Z,959.78
2022-12-15T02:22:33.603Z,959.67
2022-12-15T02:23:34.011Z,959.57
2022-12-15T02:24:33.578Z,959.58
2022-12-15T02:25:33.561Z,959.67
2022-12-15T02:26:33.574Z,959.55
2022-12-15T02:27:33.563Z,959.59
2022-12-15T02:28:33.531Z,959.57
2022-12-15T02:29:33.528Z,959.62
2022-12-15T02:30:33.515Z,959.61
2022-12-15T02:31:33.531Z,959.58
2022-12-15T02:32:33.521Z,959.54
2022-12-15T02:33:33.818Z,959.55
2022-12-15T02:34:33.460Z,959.54
2022-12-15T02:35:33.463Z,959.53
2022-12-15T02:36:33.495Z,959.57
2022-12-15T02:37:33.432Z,959.60
2022-12-15T02:38:33.443Z,959.61
2022-12-15T02:39:33.410Z,959.62
2022-12-15T02:40:33.417Z,959.61
2022-12-15T02:41:33.417Z,959.64
2022-12-15T02:42:33.417Z,959.64
2022-12-15T02:43:33.899Z,959.60
2022-12-15T02:44:33.392Z,959.64
2022-12-15T02:45:33.419Z,959.67
2022-12-15T02:46:33.356Z,959.59
2022-12-15T02:47:33.398Z,959.63
2022-12-15T02:48:33.324Z,959.63
2022-12-15T02:49:33.332Z,959.61
2022-12-15T02:50:33.347Z,959.62
2022-12-15T02:51:33.309Z,959.59
2022-12-15T02:52:33.370Z,959.61
2022-12-15T02:53:33.794Z,959.67
2022-12-15T02:54:33.278Z,959.62
2022-12-15T02:55:33.272Z,959.66
2022-12-15T02:56:33.251Z,959.65
2022-12-15T02:57:33.272Z,959.56
2022-12-15T02:58:33.239Z,959.52
2022-12-15T02:59:33.240Z,959.53
2022-12-15T03:00:33.212Z,959.51
2022-12-15T03:01:33.318Z,959.60
2022-12-15T03:02:33.272Z,959.60
2022-12-15T03:03:33.781Z,959.61
2022-12-15T03:04:33.179Z,959.61
2022-12-15T03:05:33.191Z,959.63
2022-12-15T03:06:33.153Z,959.58
2022-12-15T03:07:34.570Z,959.60
2022-12-15T03:08:33.142Z,959.59
2022-12-15T03:09:33.145Z,959.68
2022-12-15T03:10:33.111Z,959.66
2022-12-15T03:11:33.160Z,959.65
2022-12-15T03:12:33.326Z,959.65
2022-12-15T03:13:33.688Z,959.66
2022-12-15T03:14:33.081Z,959.70
2022-12-15T03:15:35.450Z,959.66
2022-12-15T03:16:33.226Z,959.62
2022-12-15T03:17:33.041Z,959.69
2022-12-15T03:18:33.051Z,959.69
2022-12-15T03:19:33.040Z,959.67
2022-12-15T03:20:33.071Z,959.65
2022-12-15T03:21:33.006Z,959.68
2022-12-15T03:22:33.009Z,959.57
2022-12-15T03:23:33.618Z,959.53
2022-12-15T03:24:32.984Z,959.52
2022-12-15T03:25:32.987Z,959.54
2022-12-15T03:26:32.982Z,959.53
2022-12-15T03:27:32.962Z,959.48
2022-12-15T03:28:32.948Z,959.52
2022-12-15T03:29:32.980Z,959.58
2022-12-15T03:30:32.929Z,959.58
2022-12-15T03:31:32.972Z,959.63
2022-12-15T03:32:32.931Z,959.63
2022-12-15T03:33:33.407Z,959.68
2022-12-15T03:34:32.925Z,959.60
2022-12-15T03:35:32.871Z,959.60
2022-12-15T03:36:32.899Z,959.59
2022-12-15T03:37:32.852Z,959.59
2022-12-15T03:38:32.848Z,959.64
2022-12-15T03:39:32.840Z,959.58
2022-12-15T03:40:32.830Z,959.60
2022-12-15T03:41:32.838Z,959.61
2022-12-15T03:42:32.813Z,959.68
2022-12-15T03:43:33.148Z,959.65
2022-12-15T03:44:32.786Z,959.64
2022-12-15T03:45:32.895Z,959.67
2022-12-15T03:46:32.793Z,959.67
2022-12-15T03:47:33.093Z,959.71
2022-12-15T03:48:32.769Z,959.64
2022-12-15T03:49:32.769Z,959.67
2022-12-15T03:50:32.733Z,959.66
2022-12-15T03:51:32.749Z,959.71
2022-12-15T03:52:32.722Z,959.68
2022-12-15T03:53:32.954Z,959.71
2022-12-15T03:54:32.697Z,959.71
2022-12-15T03:55:32.695Z,959.72
2022-12-15T03:56:32.677Z,959.84
2022-12-15T03:57:32.671Z,959.79
2022-12-15T03:58:32.653Z,959.81
2022-12-15T03:59:32.658Z,959.81
2022-12-15T04:00:32.639Z,959.85
2022-12-15T04:01:32.799Z,959.82
2022-12-15T04:02:32.837Z,959.83
2022-12-15T04:03:33.103Z,959.84
2022-12-15T04:04:32.600Z,959.80
2022-12-15T04:05:32.592Z,959.86
2022-12-15T04:06:32.578Z,959.78
2022-12-15T04:07:32.567Z,959.87
2022-12-15T04:08:32.607Z,959.85
2022-12-15T04:09:32.568Z,959.86
2022-12-15T04:10:34.621Z,959.80
2022-12-15T04:11:32.538Z,959.75
2022-12-15T04:12:32.529Z,959.73
2022-12-15T04:13:32.855Z,959.77
2022-12-15T04:14:32.536Z,959.82
2022-12-15T04:15:32.493Z,959.82
2022-12-15T04:16:32.541Z,959.83
2022-12-15T04:17:32.541Z,959.80
2022-12-15T04:18:32.465Z,959.84
2022-12-15T04:19:32.459Z,959.80
2022-12-15T04:20:32.489Z,959.84
2022-12-15T04:21:32.464Z,959.87
2022-12-15T04:22:32.465Z,959.86
2022-12-15T04:23:32.814Z,959.86
2022-12-15T04:24:32.409Z,959.87
2022-12-15T04:25:32.407Z,959.86
2022-12-15T04:26:32.409Z,959.85
2022-12-15T04:27:32.374Z,959.87
2022-12-15T04:28:32.416Z,959.84
2022-12-15T04:29:32.388Z,959.87
2022-12-15T04:30:32.375Z,959.86
2022-12-15T04:31:32.389Z,959.84
2022-12-15T04:32:32.330Z,959.82
2022-12-15T04:33:32.978Z,959.82
2022-12-15T04:34:32.296Z,959.86
2022-12-15T04:35:32.292Z,959.87
2022-12-15T04:36:32.287Z,959.84
2022-12-15T04:37:32.281Z,959.93
2022-12-15T04:38:32.291Z,959.89
2022-12-15T04:39:32.269Z,959.98
2022-12-15T04:40:32.254Z,960.04
2022-12-15T04:41:32.245Z,960.06
2022-12-15T04:42:32.244Z,960.07
2022-12-15T04:43:32.720Z,960.07
2022-12-15T04:44:32.220Z,960.10
2022-12-15T04:45:32.210Z,960.11
2022-12-15T04:46:32.346Z,960.07
2022-12-15T04:47:32.202Z,960.10
2022-12-15T04:48:32.214Z,960.09
2022-12-15T04:49:32.196Z,960.07
2022-12-15T04:50:32.152Z,960.09
2022-12-15T04:51:32.133Z,960.07
2022-12-15T04:52:32.156Z,960.02
2022-12-15T04:53:32.746Z,960.01
2022-12-15T04:54:32.132Z,960.02
2022-12-15T04:55:32.115Z,960.09
2022-12-15T04:56:32.093Z,960.11
2022-12-15T04:57:32.092Z,960.18
2022-12-15T04:58:32.092Z,960.22
2022-12-15T04:59:32.112Z,960.20
2022-12-15T05:00:32.065Z,960.21
2022-12-15T05:01:32.197Z,960.25
2022-12-15T05:02:32.179Z,960.20
2022-12-15T05:03:32.460Z,960.20
2022-12-15T05:04:32.122Z,960.25
2022-12-15T05:05:32.032Z,960.20
2022-12-15T05:06:31.986Z,960.15
2022-12-15T05:07:31.994Z,960.18
2022-12-15T05:08:31.982Z,960.20
2022-12-15T05:09:32.096Z,960.22
2022-12-15T05:10:32.011Z,960.21
2022-12-15T05:11:31.960Z,960.19
2022-12-15T05:12:31.947Z,960.20
2022-12-15T05:13:32.256Z,960.16
2022-12-15T05:14:31.927Z,960.20
2022-12-15T05:15:31.944Z,960.25
2022-12-15T05:16:31.911Z,960.20
2022-12-15T05:17:34.579Z,960.16
2022-12-15T05:18:31.890Z,960.20
2022-12-15T05:19:31.874Z,960.14
2022-12-15T05:20:31.880Z,960.21
2022-12-15T05:21:31.861Z,960.10
2022-12-15T05:22:31.877Z,960.16
2022-12-15T05:23:32.239Z,960.11
2022-12-15T05:24:31.844Z,960.25
2022-12-15T05:25:31.847Z,960.20
2022-12-15T05:26:31.808Z,960.28
2022-12-15T05:27:31.829Z,960.21
2022-12-15T05:28:31.800Z,960.26
2022-12-15T05:29:31.774Z,960.31
2022-12-15T05:30:31.771Z,960.28
2022-12-15T05:31:31.859Z,960.30
2022-12-15T05:32:31.826Z,960.23
2022-12-15T05:33:32.002Z,960.19
2022-12-15T05:34:31.736Z,960.25
2022-12-15T05:35:31.732Z,960.28
2022-12-15T05:36:31.729Z,960.27
2022-12-15T05:37:31.730Z,960.27
2022-12-15T05:38:31.705Z,960.27
2022-12-15T05:39:31.692Z,960.24
2022-12-15T05:40:31.717Z,960.26
2022-12-15T05:41:31.705Z,960.30
2022-12-15T05:42:31.654Z,960.33
2022-12-15T05:43:31.988Z,960.31
2022-12-15T05:44:31.643Z,960.32
2022-12-15T05:45:31.625Z,960.32
2022-12-15T05:46:31.690Z,960.35
2022-12-15T05:47:31.626Z,960.30
2022-12-15T05:48:31.600Z,960.30
2022-12-15T05:49:31.596Z,960.34
2022-12-15T05:50:31.600Z,960.33
2022-12-15T05:51:31.614Z,960.28
2022-12-15T05:52:31.561Z,960.33
2022-12-15T05:53:31.972Z,960.28
2022-12-15T05:54:31.572Z,960.31
2022-12-15T05:55:31.575Z,960.32
2022-12-15T05:56:31.520Z,960.32
2022-12-15T05:57:31.525Z,960.31
2022-12-15T05:58:31.519Z,960.37
2022-12-15T05:59:31.502Z,960.40
2022-12-15T06:00:31.508Z,960.36
2022-12-15T06:01:31.577Z,960.39
2022-12-15T06:02:31.496Z,960.45
2022-12-15T06:03:31.768Z,960.38
2022-12-15T06:04:31.507Z,960.46
2022-12-15T06:05:31.456Z,960.32
2022-12-15T06:06:31.437Z,960.38
2022-12-15T06:07:31.428Z,960.36
2022-12-15T06:08:31.423Z,960.35
2022-12-15T06:09:31.415Z,960.35
2022-12-15T06:10:31.424Z,960.37
2022-12-15T06:11:31.383Z,960.35
2022-12-15T06:12:31.398Z,960.43
2022-12-15T06:13:31.775Z,960.39
2022-12-15T06:14:31.338Z,960.39
2022-12-15T06:15:31.386Z,960.39
2022-12-15T06:16:31.387Z,960.38
2022-12-15T06:17:31.354Z,960.43
2022-12-15T06:18:31.417Z,960.44
2022-12-15T06:19:31.304Z,960.46
2022-12-15T06:20:31.323Z,960.45
2022-12-15T06:21:31.298Z,960.53
2022-12-15T06:22:31.317Z,960.65
2022-12-15T06:23:31.617Z,960.59
2022-12-15T06:24:31.264Z,960.55
2022-12-15T06:25:31.268Z,960.54
2022-12-15T06:26:31.239Z,960.59
2022-12-15T06:27:31.245Z,960.54
2022-12-15T06:28:31.257Z,960.59
2022-12-15T06:29:31.217Z,960.60
2022-12-15T06:30:31.193Z,960.56
2022-12-15T06:31:31.219Z,960.52
2022-12-15T06:32:31.199Z,960.51
2022-12-15T06:33:31.709Z,960.49
2022-12-15T06:34:31.168Z,960.56
2022-12-15T06:35:31.156Z,960.56
2022-12-15T06:36:31.315Z,960.58
2022-12-15T06:37:31.138Z,960.55
2022-12-15T06:38:31.122Z,960.56
2022-12-15T06:39:31.121Z,960.54
2022-12-15T06:40:36.335Z,960.51
2022-12-15T06:41:31.138Z,960.54
2022-12-15T06:42:31.112Z,960.62
2022-12-15T06:43:31.582Z,960.59
2022-12-15T06:44:31.066Z,960.62
2022-12-15T06:45:31.138Z,960.65
2022-12-15T06:46:31.175Z,960.65
2022-12-15T06:47:31.032Z,960.60
2022-12-15T06:48:31.052Z,960.58
2022-12-15T06:49:31.017Z,960.56
2022-12-15T06:50:31.013Z,960.68
2022-12-15T06:51:30.992Z,960.63
2022-12-15T06:52:30.995Z,960.62
2022-12-15T06:53:31.479Z,960.61
2022-12-15T06:54:30.971Z,960.66
2022-12-15T06:55:30.970Z,960.68
2022-12-15T06:56:33.950Z,960.71
2022-12-15T06:57:30.936Z,960.65
2022-12-15T06:58:30.946Z,960.74
2022-12-15T06:59:30.968Z,960.68
2022-12-15T07:00:30.936Z,960.69
2022-12-15T07:01:31.131Z,960.67
2022-12-15T07:02:31.093Z,960.72
2022-12-15T07:03:31.544Z,960.68
2022-12-15T07:04:30.988Z,960.68
2022-12-15T07:05:30.883Z,960.68
2022-12-15T07:06:30.861Z,960.61
2022-12-15T07:07:30.839Z,960.63
2022-12-15T07:08:34.219Z,960.57
2022-12-15T07:09:30.832Z,960.65
2022-12-15T07:10:30.841Z,960.66
2022-12-15T07:11:30.845Z,960.65
2022-12-15T07:12:30.807Z,960.74
2022-12-15T07:13:31.136Z,960.73
2022-12-15T07:14:30.780Z,960.82
2022-12-15T07:15:30.785Z,960.78
2022-12-15T07:16:30.895Z,960.84
2022-12-15T07:17:30.747Z,960.88
2022-12-15T07:18:30.736Z,960.79
2022-12-15T07:19:30.731Z,960.82
2022-12-15T07:20:30.710Z,960.77
2022-12-15T07:21:30.835Z,960.78
2022-12-15T07:22:30.732Z,960.77
2022-12-15T07:23:53.532Z,960.77
2022-12-15T07:24:30.702Z,960.78
2022-12-15T07:25:30.664Z,960.80
2022-12-15T07:26:30.713Z,960.70
2022-12-15T07:27:30.660Z,960.74
2022-12-15T07:28:31.108Z,960.78
2022-12-15T07:29:30.637Z,960.76
2022-12-15T07:30:35.207Z,960.75
2022-12-15T07:31:30.683Z,960.76
2022-12-15T07:32:30.626Z,960.82
2022-12-15T07:33:31.002Z,960.82
2022-12-15T07:34:30.585Z,960.77
2022-12-15T07:35:30.597Z,960.82
2022-12-15T07:36:30.594Z,960.77
2022-12-15T07:37:30.563Z,960.83
2022-12-15T07:38:30.555Z,960.88
2022-12-15T07:39:30.525Z,960.84
2022-12-15T07:40:30.521Z,960.96
2022-12-15T07:41:30.576Z,960.89
2022-12-15T07:42:30.523Z,960.89
2022-12-15T07:43:31.126Z,960.91
2022-12-15T07:44:30.502Z,960.94
2022-12-15T07:45:30.533Z,960.91
2022-12-15T07:46:30.567Z,960.95
2022-12-15T07:47:30.465Z,960.95
2022-12-15T07:48:30.446Z,960.98
2022-12-15T07:49:30.434Z,961.05
2022-12-15T07:50:30.434Z,961.07
2022-12-15T07:51:30.434Z,961.12
2022-12-15T07:52:30.424Z,961.14
2022-12-15T07:53:30.969Z,961.10
2022-12-15T07:54:30.394Z,961.05
2022-12-15T07:55:57.340Z,961.13
2022-12-15T07:56:33.270Z,961.02
2022-12-15T07:57:30.361Z,961.02
2022-12-15T07:58:30.349Z,961.07
2022-12-15T07:59:30.411Z,960.96
2022-12-15T08:00:30.323Z,960.96
2022-12-15T08:01:30.370Z,960.97
2022-12-15T08:02:30.650Z,960.96
2022-12-15T08:03:31.001Z,960.98
2022-12-15T08:04:30.293Z,960.93
2022-12-15T08:05:30.299Z,961.00
2022-12-15T08:06:30.260Z,961.04
2022-12-15T08:07:30.260Z,961.04
2022-12-15T08:08:30.832Z,960.96
2022-12-15T08:09:30.260Z,960.96
2022-12-15T08:10:30.232Z,960.97
2022-12-15T08:11:30.217Z,960.93
2022-12-15T08:12:30.219Z,960.94
2022-12-15T08:14:01.357Z,960.97
2022-12-15T08:14:30.223Z,960.96
2022-12-15T08:15:30.187Z,961.03
2022-12-15T08:16:30.308Z,961.01
2022-12-15T08:17:30.152Z,961.05
2022-12-15T08:18:30.151Z,961.03
2022-12-15T08:19:30.171Z,961.05
2022-12-15T08:20:30.130Z,961.03
2022-12-15T08:21:30.123Z,961.02
2022-12-15T08:22:30.121Z,961.03
2022-12-15T08:23:30.492Z,961.11
2022-12-15T08:24:30.105Z,961.01
2022-12-15T08:25:30.064Z,960.94
2022-12-15T08:26:31.300Z,960.95
2022-12-15T08:27:30.056Z,960.93
2022-12-15T08:28:30.030Z,960.95
2022-12-15T08:29:50.491Z,960.96
2022-12-15T08:30:30.037Z,960.92
2022-12-15T08:31:30.076Z,960.96
2022-12-15T08:32:30.002Z,960.92
2022-12-15T08:33:30.444Z,961.00
2022-12-15T08:34:30.018Z,961.04
2022-12-15T08:35:55.115Z,961.12
2022-12-15T08:36:29.966Z,961.02
2022-12-15T08:37:29.979Z,961.04
2022-12-15T08:38:29.930Z,961.15
2022-12-15T08:39:29.957Z,961.11
2022-12-15T08:40:29.993Z,961.16
2022-12-15T08:41:29.932Z,961.17
2022-12-15T08:42:29.913Z,961.12
2022-12-15T08:43:30.414Z,961.16
2022-12-15T08:44:29.903Z,961.14
2022-12-15T08:45:29.916Z,961.14
2022-12-15T08:46:29.934Z,961.14
2022-12-15T08:47:30.002Z,961.13
2022-12-15T08:48:29.830Z,961.14
2022-12-15T08:49:29.892Z,961.08
2022-12-15T08:50:29.839Z,961.05
2022-12-15T08:51:29.829Z,961.12
2022-12-15T08:52:29.795Z,961.07
2022-12-15T08:53:31.666Z,961.05
2022-12-15T08:54:29.781Z,961.07
2022-12-15T08:55:29.753Z,961.12
2022-12-15T08:56:29.785Z,961.12
2022-12-15T08:57:29.736Z,961.10
2022-12-15T08:58:29.748Z,961.09
2022-12-15T08:59:29.735Z,961.07
2022-12-15T09:00:29.726Z,961.03
2022-12-15T09:01:29.872Z,961.02
2022-12-15T09:02:31.283Z,960.92
2022-12-15T09:03:30.205Z,960.96
2022-12-15T09:04:29.719Z,960.99
2022-12-15T09:05:29.657Z,960.96
2022-12-15T09:06:29.709Z,960.95
2022-12-15T09:07:29.628Z,960.99
2022-12-15T09:08:29.617Z,961.00
2022-12-15T09:09:29.622Z,961.00
2022-12-15T09:10:29.590Z,960.99
2022-12-15T09:11:29.620Z,961.06
2022-12-15T09:12:29.611Z,961.12
2022-12-15T09:13:30.178Z,961.11
2022-12-15T09:14:29.835Z,961.15
2022-12-15T09:15:51.949Z,961.09
2022-12-15T09:16:29.618Z,961.06
2022-12-15T09:17:29.604Z,961.08
2022-12-15T09:18:29.520Z,961.13
2022-12-15T09:19:29.516Z,961.17
2022-12-15T09:20:29.530Z,961.11
2022-12-15T09:21:29.494Z,961.18
2022-12-15T09:22:29.484Z,961.19
2022-12-15T09:23:29.901Z,961.19
2022-12-15T09:24:35.122Z,961.20
2022-12-15T09:25:29.479Z,961.13
2022-12-15T09:26:29.585Z,961.17
2022-12-15T09:27:29.417Z,961.18
2022-12-15T09:28:29.424Z,961.19
2022-12-15T09:29:29.448Z,961.14
2022-12-15T09:30:29.469Z,961.14
2022-12-15T09:31:29.501Z,961.24
2022-12-15T09:32:29.419Z,961.18
2022-12-15T09:33:29.873Z,961.20
2022-12-15T09:34:29.427Z,961.20
2022-12-15T09:35:29.375Z,961.16
2022-12-15T09:36:29.327Z,961.24
2022-12-15T09:37:29.351Z,961.26
2022-12-15T09:38:29.310Z,961.20
2022-12-15T09:39:29.307Z,961.22
2022-12-15T09:40:29.317Z,961.18
2022-12-15T09:41:29.314Z,961.18
2022-12-15T09:42:29.297Z,961.20
2022-12-15T09:43:41.460Z,961.20
2022-12-15T09:44:29.283Z,961.28
2022-12-15T09:45:29.255Z,961.24
2022-12-15T09:46:29.414Z,961.23
2022-12-15T09:47:29.244Z,961.38
2022-12-15T09:48:29.220Z,961.25
2022-12-15T09:49:29.212Z,961.31
2022-12-15T09:50:29.201Z,961.34
2022-12-15T09:51:29.259Z,961.31
2022-12-15T09:52:29.354Z,961.33
2022-12-15T09:53:54.148Z,961.33
2022-12-15T09:54:29.289Z,961.38
2022-12-15T09:55:29.201Z,961.32
2022-12-15T09:56:29.192Z,961.39
2022-12-15T09:57:29.240Z,961.40
2022-12-15T09:58:29.126Z,961.45
2022-12-15T09:59:29.110Z,961.34
2022-12-15T10:00:29.131Z,961.35
2022-12-15T10:01:29.199Z,961.37
2022-12-15T10:02:29.209Z,961.34
2022-12-15T10:03:29.538Z,961.37
2022-12-15T10:04:29.127Z,961.31
2022-12-15T10:05:50.051Z,961.26
2022-12-15T10:06:33.092Z,961.31
2022-12-15T10:07:29.030Z,961.30
2022-12-15T10:08:29.029Z,961.32
2022-12-15T10:09:29.017Z,961.23
2022-12-15T10:10:29.023Z,961.29
2022-12-15T10:11:28.987Z,961.31
2022-12-15T10:12:29.025Z,961.31
2022-12-15T10:13:29.486Z,961.33
2022-12-15T10:14:28.954Z,961.32
2022-12-15T10:15:29.002Z,961.31
2022-12-15T10:16:28.936Z,961.33
2022-12-15T10:17:28.941Z,961.31
2022-12-15T10:18:29.067Z,961.31
2022-12-15T10:19:28.909Z,961.32
2022-12-15T10:20:28.903Z,961.33
2022-12-15T10:21:28.950Z,961.40
2022-12-15T10:22:28.870Z,961.37
2022-12-15T10:23:29.505Z,961.40
2022-12-15T10:25:00.330Z,961.35
2022-12-15T10:25:30.682Z,961.38
2022-12-15T10:26:28.827Z,961.28
2022-12-15T10:27:28.880Z,961.37
2022-12-15T10:28:28.829Z,961.30
2022-12-15T10:29:28.808Z,961.28
2022-12-15T10:30:28.937Z,961.32
2022-12-15T10:31:28.890Z,961.32
2022-12-15T10:32:28.781Z,961.31
2022-12-15T10:33:29.171Z,961.37
2022-12-15T10:34:29.016Z,961.35
2022-12-15T10:35:28.765Z,961.35
2022-12-15T10:36:28.733Z,961.35
2022-12-15T10:37:28.718Z,961.34
2022-12-15T10:38:28.757Z,961.31
2022-12-15T10:39:28.694Z,961.38
2022-12-15T10:40:28.710Z,961.42
2022-12-15T10:41:28.719Z,961.44
2022-12-15T10:42:28.679Z,961.46
2022-12-15T10:43:29.257Z,961.49
2022-12-15T15:03:12.081Z,961.46
2022-12-15T15:03:26.301Z,963.48
2022-12-15T15:04:26.254Z,963.50
2022-12-15T15:05:26.515Z,963.47
2022-12-15T15:06:26.234Z,963.47
2022-12-15T15:07:26.245Z,963.47
2022-12-15T15:08:26.197Z,963.44
2022-12-15T15:09:26.192Z,963.46
2022-12-15T15:10:26.190Z,963.44
2022-12-15T15:11:26.198Z,963.42
2022-12-15T15:12:26.178Z,963.44
2022-12-15T15:13:26.455Z,963.42
2022-12-15T15:14:26.136Z,963.40
2022-12-15T15:15:26.126Z,963.45
2022-12-15T15:16:26.272Z,963.47
2022-12-15T15:17:26.165Z,963.44
2022-12-15T15:18:26.126Z,963.48
2022-12-15T15:19:26.100Z,963.55
2022-12-15T15:20:26.073Z,963.46
2022-12-15T15:21:26.080Z,963.54
2022-12-15T15:22:26.083Z,963.50
2022-12-15T15:23:26.080Z,963.54
2022-12-15T15:24:26.049Z,963.56
2022-12-15T15:25:26.039Z,963.59
2022-12-15T15:26:26.040Z,963.55
2022-12-15T15:27:26.066Z,963.52
2022-12-15T15:28:26.011Z,963.57
2022-12-15T15:29:25.995Z,963.62
2022-12-15T15:30:25.988Z,963.60
2022-12-15T15:31:26.047Z,963.64
2022-12-15T15:32:25.968Z,963.56
2022-12-15T15:33:26.051Z,963.57
2022-12-15T15:34:25.988Z,963.55
2022-12-15T15:35:25.937Z,963.59
2022-12-15T15:36:25.913Z,963.62
2022-12-15T15:37:25.898Z,963.61
2022-12-15T15:38:25.924Z,963.62
2022-12-15T15:39:25.903Z,963.67
2022-12-15T15:40:25.876Z,963.69
2022-12-15T15:41:25.905Z,963.63
2022-12-15T15:42:32.234Z,963.58
2022-12-15T15:43:25.868Z,963.66
2022-12-15T15:44:25.841Z,963.62
2022-12-15T15:45:25.831Z,963.65
2022-12-15T15:46:25.915Z,963.60
2022-12-15T15:47:25.804Z,963.70
2022-12-15T15:48:25.824Z,963.69
2022-12-15T15:49:25.809Z,963.76
2022-12-15T15:50:25.770Z,963.68
2022-12-15T15:51:25.845Z,963.71
2022-12-15T15:52:25.793Z,963.75
2022-12-15T15:53:25.757Z,963.73
2022-12-15T15:54:25.730Z,963.74
2022-12-15T15:55:25.729Z,963.79
2022-12-15T15:56:25.722Z,963.87
2022-12-15T15:57:25.731Z,963.82
2022-12-15T15:58:25.696Z,963.87
2022-12-15T15:59:25.695Z,963.83
2022-12-15T16:00:25.710Z,963.86
2022-12-15T16:01:25.827Z,963.86
2022-12-15T16:02:25.904Z,963.92
2022-12-15T16:03:25.895Z,963.90
2022-12-15T16:04:25.636Z,963.96
2022-12-15T16:05:25.640Z,964.00
2022-12-15T16:06:25.654Z,963.99
2022-12-15T16:07:25.635Z,964.03
2022-12-15T16:08:25.641Z,964.02
2022-12-15T16:09:25.670Z,964.05
2022-12-15T16:10:25.584Z,964.04
2022-12-15T16:11:25.579Z,964.05
2022-12-15T16:12:25.662Z,964.08
2022-12-15T16:13:26.396Z,964.04
2022-12-15T16:14:25.565Z,964.07
2022-12-15T16:15:25.570Z,964.10
2022-12-15T16:16:25.627Z,964.05
2022-12-15T16:17:25.502Z,964.05
2022-12-15T16:18:25.490Z,964.04
2022-12-15T16:19:25.483Z,964.01
2022-12-15T16:20:25.463Z,964.06
2022-12-15T16:21:25.508Z,964.00
2022-12-15T16:22:25.464Z,964.03
2022-12-15T16:23:25.482Z,964.08
2022-12-15T16:24:25.456Z,964.10
2022-12-15T16:25:25.514Z,964.10
2022-12-15T16:26:25.403Z,964.13
2022-12-15T16:27:25.468Z,964.11
2022-12-15T16:28:25.439Z,964.13
2022-12-15T16:29:25.389Z,964.17
2022-12-15T16:30:25.371Z,964.14
2022-12-15T16:31:25.386Z,964.14
2022-12-15T16:32:25.370Z,964.17
2022-12-15T16:33:25.332Z,964.15
2022-12-15T16:34:25.398Z,964.17
2022-12-15T16:35:25.417Z,964.14
2022-12-15T16:36:26.018Z,964.17
2022-12-15T16:37:25.312Z,964.17
2022-12-15T16:38:25.332Z,964.11
2022-12-15T16:39:25.276Z,964.15
2022-12-15T16:40:25.270Z,964.18
2022-12-15T16:41:25.256Z,964.19
2022-12-15T16:42:25.240Z,964.15
2022-12-15T16:43:26.151Z,964.16
2022-12-15T16:44:25.249Z,964.17
2022-12-15T16:45:25.354Z,964.22
2022-12-15T16:46:25.265Z,964.22